sensor_id;sensor_type;location;lat;lon;timestamp;P1;durP1;ratioP1;P2;durP2;ratioP2
3189;SDS011;1606;51.946;10.558;2023-03-14T00:02:26;5.87;;;1.83;;
3189;SDS011;1606;51.946;10.558;2023-03-14T00:04:54;5.47;;;1.70;;
3189;SDS011;1606;51.946;10.558;2023-03-14T00:07:22;8.60;;;1.87;;
3189;SDS011;1606;51.946;10.558;2023-03-14T00:09:51;7.70;;;1.97;;
3189;SDS011;1606;51.946;10.558;2023-03-14T00:12:19;9.37;;;1.67;;
3189;SDS011;1606;51.946;10.558;2023-03-14T00:14:48;6.53;;;2.10;;
3189;SDS011;1606;51.946;10.558;2023-03-14T00:17:17;5.70;;;1.67;;
3189;SDS011;1606;51.946;10.558;2023-03-14T00:19:45;6.50;;;1.30;;
3189;SDS011;1606;51.946;10.558;2023-03-14T00:22:12;7.50;;;1.40;;
3189;SDS011;1606;51.946;10.558;2023-03-14T00:24:40;7.43;;;2.17;;
3189;SDS011;1606;51.946;10.558;2023-03-14T00:27:08;6.23;;;1.70;;
3189;SDS011;1606;51.946;10.558;2023-03-14T00:29:35;5.53;;;1.37;;
3189;SDS011;1606;51.946;10.558;2023-03-14T00:32:03;7.40;;;2.00;;
3189;SDS011;1606;51.946;10.558;2023-03-14T00:34:33;5.23;;;1.33;;
3189;SDS011;1606;51.946;10.558;2023-03-14T00:37:01;5.63;;;1.80;;
3189;SDS011;1606;51.946;10.558;2023-03-14T00:39:28;9.40;;;1.73;;
3189;SDS011;1606;51.946;10.558;2023-03-14T00:41:56;5.50;;;1.60;;
3189;SDS011;1606;51.946;10.558;2023-03-14T00:44:24;5.93;;;1.50;;
3189;SDS011;1606;51.946;10.558;2023-03-14T00:46:52;5.10;;;1.60;;
3189;SDS011;1606;51.946;10.558;2023-03-14T00:49:19;6.70;;;1.20;;
3189;SDS011;1606;51.946;10.558;2023-03-14T00:51:49;5.90;;;1.50;;
3189;SDS011;1606;51.946;10.558;2023-03-14T00:54:18;5.40;;;1.40;;
3189;SDS011;1606;51.946;10.558;2023-03-14T00:56:48;6.67;;;1.53;;
3189;SDS011;1606;51.946;10.558;2023-03-14T00:59:16;8.60;;;1.20;;
3189;SDS011;1606;51.946;10.558;2023-03-14T01:01:44;5.00;;;1.57;;
3189;SDS011;1606;51.946;10.558;2023-03-14T01:04:12;5.50;;;1.40;;
3189;SDS011;1606;51.946;10.558;2023-03-14T01:06:39;6.57;;;1.20;;
3189;SDS011;1606;51.946;10.558;2023-03-14T01:09:08;5.80;;;1.30;;
3189;SDS011;1606;51.946;10.558;2023-03-14T01:11:36;6.00;;;1.83;;
3189;SDS011;1606;51.946;10.558;2023-03-14T01:14:04;5.30;;;1.40;;
3189;SDS011;1606;51.946;10.558;2023-03-14T01:16:33;5.50;;;1.60;;
3189;SDS011;1606;51.946;10.558;2023-03-14T01:19:01;5.27;;;1.63;;
3189;SDS011;1606;51.946;10.558;2023-03-14T01:21:30;5.80;;;1.13;;
3189;SDS011;1606;51.946;10.558;2023-03-14T01:23:59;5.70;;;1.20;;
3189;SDS011;1606;51.946;10.558;2023-03-14T01:26:30;5.30;;;1.40;;
3189;SDS011;1606;51.946;10.558;2023-03-14T01:29:00;5.20;;;1.33;;
3189;SDS011;1606;51.946;10.558;2023-03-14T01:31:28;5.30;;;1.30;;
3189;SDS011;1606;51.946;10.558;2023-03-14T01:33:56;7.37;;;1.67;;
3189;SDS011;1606;51.946;10.558;2023-03-14T01:36:24;8.90;;;1.93;;
3189;SDS011;1606;51.946;10.558;2023-03-14T01:38:52;5.60;;;1.20;;
3189;SDS011;1606;51.946;10.558;2023-03-14T01:41:21;5.33;;;1.30;;
3189;SDS011;1606;51.946;10.558;2023-03-14T01:43:51;5.23;;;1.47;;
3189;SDS011;1606;51.946;10.558;2023-03-14T01:46:30;5.80;;;1.23;;
3189;SDS011;1606;51.946;10.558;2023-03-14T01:49:03;5.93;;;1.20;;
3189;SDS011;1606;51.946;10.558;2023-03-14T01:51:40;8.67;;;1.53;;
3189;SDS011;1606;51.946;10.558;2023-03-14T01:54:13;8.83;;;1.43;;
3189;SDS011;1606;51.946;10.558;2023-03-14T01:56:46;6.03;;;1.40;;
3189;SDS011;1606;51.946;10.558;2023-03-14T01:59:18;5.33;;;1.37;;
3189;SDS011;1606;51.946;10.558;2023-03-14T02:01:46;5.90;;;1.40;;
3189;SDS011;1606;51.946;10.558;2023-03-14T02:04:17;6.20;;;1.37;;
3189;SDS011;1606;51.946;10.558;2023-03-14T02:06:50;5.77;;;1.33;;
3189;SDS011;1606;51.946;10.558;2023-03-14T02:09:22;6.10;;;1.33;;
3189;SDS011;1606;51.946;10.558;2023-03-14T02:11:50;5.10;;;1.20;;
3189;SDS011;1606;51.946;10.558;2023-03-14T02:14:25;7.17;;;1.43;;
3189;SDS011;1606;51.946;10.558;2023-03-14T02:16:57;5.23;;;1.40;;
3189;SDS011;1606;51.946;10.558;2023-03-14T02:19:27;6.10;;;1.30;;
3189;SDS011;1606;51.946;10.558;2023-03-14T02:22:05;5.40;;;1.40;;
3189;SDS011;1606;51.946;10.558;2023-03-14T02:24:38;6.40;;;1.40;;
3189;SDS011;1606;51.946;10.558;2023-03-14T02:27:11;7.27;;;1.97;;
3189;SDS011;1606;51.946;10.558;2023-03-14T02:29:43;6.37;;;1.30;;
3189;SDS011;1606;51.946;10.558;2023-03-14T02:32:15;6.47;;;1.40;;
3189;SDS011;1606;51.946;10.558;2023-03-14T02:34:45;6.17;;;1.43;;
3189;SDS011;1606;51.946;10.558;2023-03-14T02:37:16;7.70;;;1.33;;
3189;SDS011;1606;51.946;10.558;2023-03-14T02:39:46;7.40;;;1.60;;
3189;SDS011;1606;51.946;10.558;2023-03-14T02:42:16;5.27;;;1.20;;
3189;SDS011;1606;51.946;10.558;2023-03-14T02:44:48;5.50;;;1.30;;
3189;SDS011;1606;51.946;10.558;2023-03-14T02:47:20;7.50;;;1.50;;
3189;SDS011;1606;51.946;10.558;2023-03-14T02:49:53;5.10;;;1.50;;
3189;SDS011;1606;51.946;10.558;2023-03-14T02:52:26;7.40;;;1.67;;
3189;SDS011;1606;51.946;10.558;2023-03-14T02:54:53;6.80;;;2.20;;
3189;SDS011;1606;51.946;10.558;2023-03-14T02:57:23;5.97;;;1.60;;
3189;SDS011;1606;51.946;10.558;2023-03-14T02:59:51;7.07;;;1.73;;
3189;SDS011;1606;51.946;10.558;2023-03-14T03:02:18;5.37;;;1.60;;
3189;SDS011;1606;51.946;10.558;2023-03-14T03:04:46;6.63;;;1.90;;
3189;SDS011;1606;51.946;10.558;2023-03-14T03:07:14;7.83;;;1.37;;
3189;SDS011;1606;51.946;10.558;2023-03-14T03:09:42;6.70;;;1.53;;
3189;SDS011;1606;51.946;10.558;2023-03-14T03:12:10;5.40;;;1.67;;
3189;SDS011;1606;51.946;10.558;2023-03-14T03:14:39;7.77;;;1.77;;
3189;SDS011;1606;51.946;10.558;2023-03-14T03:17:07;6.70;;;1.40;;
3189;SDS011;1606;51.946;10.558;2023-03-14T03:19:34;6.13;;;2.00;;
3189;SDS011;1606;51.946;10.558;2023-03-14T03:22:02;5.97;;;1.70;;
3189;SDS011;1606;51.946;10.558;2023-03-14T03:24:30;9.07;;;2.53;;
3189;SDS011;1606;51.946;10.558;2023-03-14T03:26:58;6.50;;;1.93;;
3189;SDS011;1606;51.946;10.558;2023-03-14T03:29:25;6.68;;;1.25;;
3189;SDS011;1606;51.946;10.558;2023-03-14T03:31:57;8.60;;;1.80;;
3189;SDS011;1606;51.946;10.558;2023-03-14T03:34:24;5.93;;;1.50;;
3189;SDS011;1606;51.946;10.558;2023-03-14T03:36:55;7.18;;;1.40;;
3189;SDS011;1606;51.946;10.558;2023-03-14T03:39:23;6.87;;;1.80;;
3189;SDS011;1606;51.946;10.558;2023-03-14T03:41:51;8.17;;;1.67;;
3189;SDS011;1606;51.946;10.558;2023-03-14T03:44:19;7.53;;;2.10;;
3189;SDS011;1606;51.946;10.558;2023-03-14T03:46:47;7.33;;;1.63;;
3189;SDS011;1606;51.946;10.558;2023-03-14T03:49:16;8.50;;;2.70;;
3189;SDS011;1606;51.946;10.558;2023-03-14T03:51:43;8.70;;;1.77;;
3189;SDS011;1606;51.946;10.558;2023-03-14T03:54:11;6.80;;;1.90;;
3189;SDS011;1606;51.946;10.558;2023-03-14T03:56:39;8.57;;;2.07;;
3189;SDS011;1606;51.946;10.558;2023-03-14T03:59:07;7.50;;;1.93;;
3189;SDS011;1606;51.946;10.558;2023-03-14T04:01:35;7.30;;;1.50;;
3189;SDS011;1606;51.946;10.558;2023-03-14T04:04:03;7.67;;;2.57;;
3189;SDS011;1606;51.946;10.558;2023-03-14T04:06:32;6.13;;;2.00;;
3189;SDS011;1606;51.946;10.558;2023-03-14T04:09:00;6.53;;;1.40;;
3189;SDS011;1606;51.946;10.558;2023-03-14T04:11:28;8.60;;;1.77;;
3189;SDS011;1606;51.946;10.558;2023-03-14T04:13:56;7.37;;;1.50;;
3189;SDS011;1606;51.946;10.558;2023-03-14T04:16:24;6.03;;;1.70;;
3189;SDS011;1606;51.946;10.558;2023-03-14T04:18:53;7.80;;;1.53;;
3189;SDS011;1606;51.946;10.558;2023-03-14T04:21:20;10.33;;;1.53;;
3189;SDS011;1606;51.946;10.558;2023-03-14T04:23:49;6.40;;;1.50;;
3189;SDS011;1606;51.946;10.558;2023-03-14T04:26:17;7.87;;;1.77;;
3189;SDS011;1606;51.946;10.558;2023-03-14T04:28:45;7.00;;;1.63;;
3189;SDS011;1606;51.946;10.558;2023-03-14T04:31:13;7.53;;;1.60;;
3189;SDS011;1606;51.946;10.558;2023-03-14T04:33:42;7.18;;;1.40;;
3189;SDS011;1606;51.946;10.558;2023-03-14T04:36:11;6.43;;;1.33;;
3189;SDS011;1606;51.946;10.558;2023-03-14T04:38:40;7.83;;;1.90;;
3189;SDS011;1606;51.946;10.558;2023-03-14T04:41:09;7.43;;;1.75;;
3189;SDS011;1606;51.946;10.558;2023-03-14T04:43:36;5.73;;;1.63;;
3189;SDS011;1606;51.946;10.558;2023-03-14T04:46:04;8.30;;;1.40;;
3189;SDS011;1606;51.946;10.558;2023-03-14T04:48:32;5.93;;;1.63;;
3189;SDS011;1606;51.946;10.558;2023-03-14T04:51:00;8.13;;;2.50;;
3189;SDS011;1606;51.946;10.558;2023-03-14T04:53:28;7.23;;;1.83;;
3189;SDS011;1606;51.946;10.558;2023-03-14T04:55:58;6.57;;;1.70;;
3189;SDS011;1606;51.946;10.558;2023-03-14T04:58:27;6.83;;;2.40;;
3189;SDS011;1606;51.946;10.558;2023-03-14T05:00:55;9.53;;;1.60;;
3189;SDS011;1606;51.946;10.558;2023-03-14T05:03:23;7.17;;;2.60;;
3189;SDS011;1606;51.946;10.558;2023-03-14T05:05:51;7.77;;;2.60;;
3189;SDS011;1606;51.946;10.558;2023-03-14T05:08:19;7.27;;;1.60;;
3189;SDS011;1606;51.946;10.558;2023-03-14T05:10:51;8.30;;;1.73;;
3189;SDS011;1606;51.946;10.558;2023-03-14T05:13:19;6.10;;;1.67;;
3189;SDS011;1606;51.946;10.558;2023-03-14T05:15:48;6.50;;;1.90;;
3189;SDS011;1606;51.946;10.558;2023-03-14T05:18:17;5.20;;;1.33;;
3189;SDS011;1606;51.946;10.558;2023-03-14T05:20:48;8.50;;;1.40;;
3189;SDS011;1606;51.946;10.558;2023-03-14T05:23:17;10.40;;;1.80;;
3189;SDS011;1606;51.946;10.558;2023-03-14T05:25:45;5.83;;;1.53;;
3189;SDS011;1606;51.946;10.558;2023-03-14T05:28:13;5.87;;;1.30;;
3189;SDS011;1606;51.946;10.558;2023-03-14T05:30:41;9.80;;;1.57;;
3189;SDS011;1606;51.946;10.558;2023-03-14T05:33:10;8.40;;;1.53;;
3189;SDS011;1606;51.946;10.558;2023-03-14T05:35:38;6.43;;;1.60;;
3189;SDS011;1606;51.946;10.558;2023-03-14T05:38:05;7.03;;;1.40;;
3189;SDS011;1606;51.946;10.558;2023-03-14T05:40:33;5.70;;;1.40;;
3189;SDS011;1606;51.946;10.558;2023-03-14T05:43:01;7.13;;;1.33;;
3189;SDS011;1606;51.946;10.558;2023-03-14T05:45:29;5.85;;;1.10;;
3189;SDS011;1606;51.946;10.558;2023-03-14T05:47:59;6.57;;;1.53;;
3189;SDS011;1606;51.946;10.558;2023-03-14T05:50:29;5.50;;;0.97;;
3189;SDS011;1606;51.946;10.558;2023-03-14T05:52:57;5.27;;;1.13;;
3189;SDS011;1606;51.946;10.558;2023-03-14T05:55:24;6.53;;;1.20;;
3189;SDS011;1606;51.946;10.558;2023-03-14T05:57:53;5.40;;;1.03;;
3189;SDS011;1606;51.946;10.558;2023-03-14T06:00:21;5.60;;;0.97;;
3189;SDS011;1606;51.946;10.558;2023-03-14T06:02:49;6.83;;;1.00;;
3189;SDS011;1606;51.946;10.558;2023-03-14T06:05:17;6.67;;;1.07;;
3189;SDS011;1606;51.946;10.558;2023-03-14T06:07:46;5.60;;;0.87;;
3189;SDS011;1606;51.946;10.558;2023-03-14T06:10:18;7.13;;;1.27;;
3189;SDS011;1606;51.946;10.558;2023-03-14T06:12:46;5.73;;;1.50;;
3189;SDS011;1606;51.946;10.558;2023-03-14T06:15:14;6.60;;;1.20;;
3189;SDS011;1606;51.946;10.558;2023-03-14T06:17:41;5.20;;;1.10;;
3189;SDS011;1606;51.946;10.558;2023-03-14T06:20:09;7.43;;;1.27;;
3189;SDS011;1606;51.946;10.558;2023-03-14T06:22:38;5.70;;;0.90;;
3189;SDS011;1606;51.946;10.558;2023-03-14T06:25:08;6.27;;;1.20;;
3189;SDS011;1606;51.946;10.558;2023-03-14T06:27:37;5.33;;;1.20;;
3189;SDS011;1606;51.946;10.558;2023-03-14T06:30:05;6.50;;;1.00;;
3189;SDS011;1606;51.946;10.558;2023-03-14T06:32:34;7.53;;;1.10;;
3189;SDS011;1606;51.946;10.558;2023-03-14T06:35:02;11.97;;;1.60;;
3189;SDS011;1606;51.946;10.558;2023-03-14T06:37:30;6.43;;;1.00;;
3189;SDS011;1606;51.946;10.558;2023-03-14T06:39:58;8.50;;;1.30;;
3189;SDS011;1606;51.946;10.558;2023-03-14T06:42:27;5.47;;;1.20;;
3189;SDS011;1606;51.946;10.558;2023-03-14T06:44:55;9.07;;;1.73;;
3189;SDS011;1606;51.946;10.558;2023-03-14T06:47:22;7.30;;;1.47;;
3189;SDS011;1606;51.946;10.558;2023-03-14T06:49:50;7.30;;;1.60;;
3189;SDS011;1606;51.946;10.558;2023-03-14T06:52:18;7.40;;;1.50;;
3189;SDS011;1606;51.946;10.558;2023-03-14T06:54:46;7.37;;;1.70;;
3189;SDS011;1606;51.946;10.558;2023-03-14T06:57:14;7.00;;;1.77;;
3189;SDS011;1606;51.946;10.558;2023-03-14T06:59:43;8.67;;;2.00;;
3189;SDS011;1606;51.946;10.558;2023-03-14T07:02:11;9.43;;;2.10;;
3189;SDS011;1606;51.946;10.558;2023-03-14T07:04:39;7.20;;;1.87;;
3189;SDS011;1606;51.946;10.558;2023-03-14T07:07:07;10.87;;;2.20;;
3189;SDS011;1606;51.946;10.558;2023-03-14T07:09:35;10.87;;;1.80;;
3189;SDS011;1606;51.946;10.558;2023-03-14T07:12:03;12.20;;;2.27;;
3189;SDS011;1606;51.946;10.558;2023-03-14T07:14:32;12.43;;;2.17;;
3189;SDS011;1606;51.946;10.558;2023-03-14T07:17:01;7.20;;;1.90;;
3189;SDS011;1606;51.946;10.558;2023-03-14T07:19:29;9.00;;;1.80;;
3189;SDS011;1606;51.946;10.558;2023-03-14T07:21:56;7.40;;;1.60;;
3189;SDS011;1606;51.946;10.558;2023-03-14T07:24:24;8.70;;;3.07;;
3189;SDS011;1606;51.946;10.558;2023-03-14T07:26:52;9.80;;;1.70;;
3189;SDS011;1606;51.946;10.558;2023-03-14T07:29:25;12.93;;;1.90;;
3189;SDS011;1606;51.946;10.558;2023-03-14T07:31:52;6.90;;;2.07;;
3189;SDS011;1606;51.946;10.558;2023-03-14T07:34:21;7.57;;;1.50;;
3189;SDS011;1606;51.946;10.558;2023-03-14T07:36:49;5.83;;;1.20;;
3189;SDS011;1606;51.946;10.558;2023-03-14T07:39:17;9.20;;;1.33;;
3189;SDS011;1606;51.946;10.558;2023-03-14T07:41:45;11.40;;;1.60;;
3189;SDS011;1606;51.946;10.558;2023-03-14T07:44:12;5.57;;;1.27;;
3189;SDS011;1606;51.946;10.558;2023-03-14T07:46:40;6.07;;;1.40;;
3189;SDS011;1606;51.946;10.558;2023-03-14T07:49:08;6.47;;;1.33;;
3189;SDS011;1606;51.946;10.558;2023-03-14T07:51:37;5.87;;;1.27;;
3189;SDS011;1606;51.946;10.558;2023-03-14T07:54:05;8.60;;;1.90;;
3189;SDS011;1606;51.946;10.558;2023-03-14T07:56:32;7.03;;;1.90;;
3189;SDS011;1606;51.946;10.558;2023-03-14T07:59:00;6.90;;;1.47;;
3189;SDS011;1606;51.946;10.558;2023-03-14T08:01:29;6.50;;;1.40;;
3189;SDS011;1606;51.946;10.558;2023-03-14T08:03:57;5.03;;;1.30;;
3189;SDS011;1606;51.946;10.558;2023-03-14T08:06:25;5.97;;;1.40;;
3189;SDS011;1606;51.946;10.558;2023-03-14T08:08:54;6.83;;;1.20;;
3189;SDS011;1606;51.946;10.558;2023-03-14T08:11:22;5.43;;;1.30;;
3189;SDS011;1606;51.946;10.558;2023-03-14T08:13:50;6.50;;;1.90;;
3189;SDS011;1606;51.946;10.558;2023-03-14T08:16:18;5.73;;;1.27;;
3189;SDS011;1606;51.946;10.558;2023-03-14T08:18:46;4.70;;;1.00;;
3189;SDS011;1606;51.946;10.558;2023-03-14T08:21:14;6.47;;;1.53;;
3189;SDS011;1606;51.946;10.558;2023-03-14T08:23:41;5.33;;;1.23;;
3189;SDS011;1606;51.946;10.558;2023-03-14T08:26:10;6.00;;;1.00;;
3189;SDS011;1606;51.946;10.558;2023-03-14T08:28:38;4.83;;;1.00;;
3189;SDS011;1606;51.946;10.558;2023-03-14T08:31:06;7.93;;;1.20;;
3189;SDS011;1606;51.946;10.558;2023-03-14T08:33:34;5.47;;;1.33;;
3189;SDS011;1606;51.946;10.558;2023-03-14T08:36:02;5.93;;;1.57;;
3189;SDS011;1606;51.946;10.558;2023-03-14T08:38:30;4.77;;;1.00;;
3189;SDS011;1606;51.946;10.558;2023-03-14T08:40:58;5.80;;;1.20;;
3189;SDS011;1606;51.946;10.558;2023-03-14T08:43:28;5.40;;;1.10;;
3189;SDS011;1606;51.946;10.558;2023-03-14T08:45:57;6.30;;;1.33;;
3189;SDS011;1606;51.946;10.558;2023-03-14T08:48:25;5.00;;;1.00;;
3189;SDS011;1606;51.946;10.558;2023-03-14T08:50:52;4.73;;;1.03;;
3189;SDS011;1606;51.946;10.558;2023-03-14T08:53:20;5.03;;;1.10;;
3189;SDS011;1606;51.946;10.558;2023-03-14T08:55:51;5.00;;;1.10;;
3189;SDS011;1606;51.946;10.558;2023-03-14T08:58:19;5.78;;;0.98;;
3189;SDS011;1606;51.946;10.558;2023-03-14T09:00:50;5.80;;;0.90;;
3189;SDS011;1606;51.946;10.558;2023-03-14T09:03:17;6.00;;;1.20;;
3189;SDS011;1606;51.946;10.558;2023-03-14T09:05:45;5.10;;;1.10;;
3189;SDS011;1606;51.946;10.558;2023-03-14T09:08:13;5.20;;;1.30;;
3189;SDS011;1606;51.946;10.558;2023-03-14T09:10:41;5.63;;;1.00;;
3189;SDS011;1606;51.946;10.558;2023-03-14T09:13:09;5.07;;;1.07;;
3189;SDS011;1606;51.946;10.558;2023-03-14T09:15:37;7.23;;;0.97;;
3189;SDS011;1606;51.946;10.558;2023-03-14T09:18:06;5.37;;;1.20;;
3189;SDS011;1606;51.946;10.558;2023-03-14T09:20:34;5.70;;;1.00;;
3189;SDS011;1606;51.946;10.558;2023-03-14T09:23:02;6.20;;;1.00;;
3189;SDS011;1606;51.946;10.558;2023-03-14T09:25:29;5.47;;;1.30;;
3189;SDS011;1606;51.946;10.558;2023-03-14T09:27:57;5.10;;;1.10;;
3189;SDS011;1606;51.946;10.558;2023-03-14T09:30:25;5.07;;;1.20;;
3189;SDS011;1606;51.946;10.558;2023-03-14T09:32:53;5.20;;;0.90;;
3189;SDS011;1606;51.946;10.558;2023-03-14T09:35:22;5.97;;;1.60;;
3189;SDS011;1606;51.946;10.558;2023-03-14T09:37:50;4.70;;;1.00;;
3189;SDS011;1606;51.946;10.558;2023-03-14T09:40:19;6.13;;;1.10;;
3189;SDS011;1606;51.946;10.558;2023-03-14T09:42:47;4.67;;;0.83;;
3189;SDS011;1606;51.946;10.558;2023-03-14T09:45:19;7.00;;;0.90;;
3189;SDS011;1606;51.946;10.558;2023-03-14T09:47:53;4.80;;;0.90;;
3189;SDS011;1606;51.946;10.558;2023-03-14T09:50:27;4.90;;;0.80;;
3189;SDS011;1606;51.946;10.558;2023-03-14T09:53:04;5.43;;;1.10;;
3189;SDS011;1606;51.946;10.558;2023-03-14T09:55:36;5.00;;;0.90;;
3189;SDS011;1606;51.946;10.558;2023-03-14T09:58:08;4.70;;;0.70;;
3189;SDS011;1606;51.946;10.558;2023-03-14T10:00:38;5.20;;;0.88;;
3189;SDS011;1606;51.946;10.558;2023-03-14T10:03:19;5.10;;;0.90;;
3189;SDS011;1606;51.946;10.558;2023-03-14T10:05:53;4.70;;;0.93;;
3189;SDS011;1606;51.946;10.558;2023-03-14T10:08:23;4.93;;;0.80;;
3189;SDS011;1606;51.946;10.558;2023-03-14T10:10:50;5.83;;;1.00;;
3189;SDS011;1606;51.946;10.558;2023-03-14T10:13:20;5.73;;;0.80;;
3189;SDS011;1606;51.946;10.558;2023-03-14T10:15:51;6.03;;;1.00;;
3189;SDS011;1606;51.946;10.558;2023-03-14T10:18:20;5.10;;;1.43;;
3189;SDS011;1606;51.946;10.558;2023-03-14T10:21:02;5.00;;;0.70;;
3189;SDS011;1606;51.946;10.558;2023-03-14T10:23:33;4.80;;;0.83;;
3189;SDS011;1606;51.946;10.558;2023-03-14T10:26:06;4.60;;;0.70;;
3189;SDS011;1606;51.946;10.558;2023-03-14T10:28:38;4.70;;;0.70;;
3189;SDS011;1606;51.946;10.558;2023-03-14T10:31:07;6.87;;;2.63;;
3189;SDS011;1606;51.946;10.558;2023-03-14T10:33:36;4.60;;;0.87;;
3189;SDS011;1606;51.946;10.558;2023-03-14T10:36:14;4.40;;;0.60;;
3189;SDS011;1606;51.946;10.558;2023-03-14T10:38:46;4.50;;;0.70;;
3189;SDS011;1606;51.946;10.558;2023-03-14T10:41:15;5.33;;;0.80;;
3189;SDS011;1606;51.946;10.558;2023-03-14T10:43:45;4.60;;;0.97;;
3189;SDS011;1606;51.946;10.558;2023-03-14T10:46:18;4.60;;;0.67;;
3189;SDS011;1606;51.946;10.558;2023-03-14T10:48:48;4.83;;;0.97;;
3189;SDS011;1606;51.946;10.558;2023-03-14T10:51:24;4.60;;;0.83;;
3189;SDS011;1606;51.946;10.558;2023-03-14T10:53:56;4.37;;;0.57;;
3189;SDS011;1606;51.946;10.558;2023-03-14T10:56:33;4.93;;;0.73;;
3189;SDS011;1606;51.946;10.558;2023-03-14T10:59:02;5.20;;;1.00;;
3189;SDS011;1606;51.946;10.558;2023-03-14T11:01:38;5.27;;;0.83;;
3189;SDS011;1606;51.946;10.558;2023-03-14T11:04:14;4.70;;;0.73;;
3189;SDS011;1606;51.946;10.558;2023-03-14T11:06:53;4.70;;;1.00;;
3189;SDS011;1606;51.946;10.558;2023-03-14T11:09:25;4.87;;;0.70;;
3189;SDS011;1606;51.946;10.558;2023-03-14T11:12:01;4.40;;;0.70;;
3189;SDS011;1606;51.946;10.558;2023-03-14T11:14:41;5.10;;;0.97;;
3189;SDS011;1606;51.946;10.558;2023-03-14T11:17:15;4.70;;;0.80;;
3189;SDS011;1606;51.946;10.558;2023-03-14T11:19:49;5.00;;;0.70;;
3189;SDS011;1606;51.946;10.558;2023-03-14T11:22:31;5.00;;;0.83;;
3189;SDS011;1606;51.946;10.558;2023-03-14T11:25:12;4.80;;;0.80;;
3189;SDS011;1606;51.946;10.558;2023-03-14T11:27:46;5.00;;;0.83;;
3189;SDS011;1606;51.946;10.558;2023-03-14T11:30:23;4.47;;;0.70;;
3189;SDS011;1606;51.946;10.558;2023-03-14T11:32:59;5.53;;;0.87;;
3189;SDS011;1606;51.946;10.558;2023-03-14T11:35:33;4.27;;;0.70;;
3189;SDS011;1606;51.946;10.558;2023-03-14T11:38:14;5.27;;;0.90;;
3189;SDS011;1606;51.946;10.558;2023-03-14T11:40:51;4.47;;;0.70;;
3189;SDS011;1606;51.946;10.558;2023-03-14T11:43:20;4.93;;;0.90;;
3189;SDS011;1606;51.946;10.558;2023-03-14T11:45:58;4.70;;;0.90;;
3189;SDS011;1606;51.946;10.558;2023-03-14T11:48:37;5.07;;;0.80;;
3189;SDS011;1606;51.946;10.558;2023-03-14T11:51:12;4.70;;;0.70;;
3189;SDS011;1606;51.946;10.558;2023-03-14T11:53:50;5.00;;;0.87;;
3189;SDS011;1606;51.946;10.558;2023-03-14T11:56:25;4.80;;;0.80;;
3189;SDS011;1606;51.946;10.558;2023-03-14T11:58:57;7.63;;;1.20;;
3189;SDS011;1606;51.946;10.558;2023-03-14T12:01:32;4.63;;;0.93;;
3189;SDS011;1606;51.946;10.558;2023-03-14T12:04:13;4.40;;;0.60;;
3189;SDS011;1606;51.946;10.558;2023-03-14T12:06:49;4.40;;;0.73;;
3189;SDS011;1606;51.946;10.558;2023-03-14T12:09:19;4.70;;;0.70;;
3189;SDS011;1606;51.946;10.558;2023-03-14T12:11:49;5.00;;;0.80;;
3189;SDS011;1606;51.946;10.558;2023-03-14T12:14:23;5.43;;;1.07;;
3189;SDS011;1606;51.946;10.558;2023-03-14T12:16:53;6.20;;;0.90;;
3189;SDS011;1606;51.946;10.558;2023-03-14T12:19:28;6.30;;;0.83;;
3189;SDS011;1606;51.946;10.558;2023-03-14T12:24:58;5.10;;;1.23;;
3189;SDS011;1606;51.946;10.558;2023-03-14T12:27:49;5.67;;;0.83;;
3189;SDS011;1606;51.946;10.558;2023-03-14T12:30:32;6.17;;;1.50;;
3189;SDS011;1606;51.946;10.558;2023-03-14T12:33:10;4.60;;;0.90;;
3189;SDS011;1606;51.946;10.558;2023-03-14T12:36:00;5.87;;;1.30;;
3189;SDS011;1606;51.946;10.558;2023-03-14T12:41:42;4.57;;;0.90;;
3189;SDS011;1606;51.946;10.558;2023-03-14T12:44:37;4.57;;;0.70;;
3189;SDS011;1606;51.946;10.558;2023-03-14T12:50:28;5.97;;;1.20;;
3189;SDS011;1606;51.946;10.558;2023-03-14T12:56:11;5.30;;;0.97;;
3189;SDS011;1606;51.946;10.558;2023-03-14T12:59:00;5.73;;;1.20;;
3189;SDS011;1606;51.946;10.558;2023-03-14T13:01:36;5.40;;;0.73;;
3189;SDS011;1606;51.946;10.558;2023-03-14T13:04:12;6.27;;;1.10;;
3189;SDS011;1606;51.946;10.558;2023-03-14T13:06:50;5.57;;;1.40;;
3189;SDS011;1606;51.946;10.558;2023-03-14T13:12:34;7.10;;;1.20;;
3189;SDS011;1606;51.946;10.558;2023-03-14T13:15:14;14.30;;;3.77;;
3189;SDS011;1606;51.946;10.558;2023-03-14T13:17:46;6.10;;;1.43;;
3189;SDS011;1606;51.946;10.558;2023-03-14T13:20:18;5.50;;;1.40;;
3189;SDS011;1606;51.946;10.558;2023-03-14T13:22:50;5.90;;;1.70;;
3189;SDS011;1606;51.946;10.558;2023-03-14T13:25:17;6.00;;;1.87;;
3189;SDS011;1606;51.946;10.558;2023-03-14T13:27:47;5.60;;;1.30;;
3189;SDS011;1606;51.946;10.558;2023-03-14T13:30:18;5.30;;;1.03;;
3189;SDS011;1606;51.946;10.558;2023-03-14T13:32:48;5.80;;;1.20;;
3189;SDS011;1606;51.946;10.558;2023-03-14T13:35:18;5.20;;;1.00;;
3189;SDS011;1606;51.946;10.558;2023-03-14T13:37:52;5.30;;;1.10;;
3189;SDS011;1606;51.946;10.558;2023-03-14T13:40:36;5.50;;;1.07;;
3189;SDS011;1606;51.946;10.558;2023-03-14T13:43:05;5.27;;;1.00;;
3189;SDS011;1606;51.946;10.558;2023-03-14T13:45:45;5.50;;;1.30;;
3189;SDS011;1606;51.946;10.558;2023-03-14T13:48:16;5.80;;;1.27;;
3189;SDS011;1606;51.946;10.558;2023-03-14T13:50:46;5.97;;;1.10;;
3189;SDS011;1606;51.946;10.558;2023-03-14T13:53:19;5.40;;;1.03;;
3189;SDS011;1606;51.946;10.558;2023-03-14T13:55:46;5.37;;;1.17;;
3189;SDS011;1606;51.946;10.558;2023-03-14T13:58:27;5.27;;;1.10;;
3189;SDS011;1606;51.946;10.558;2023-03-14T14:00:59;5.10;;;1.00;;
3189;SDS011;1606;51.946;10.558;2023-03-14T14:03:30;5.37;;;1.07;;
3189;SDS011;1606;51.946;10.558;2023-03-14T14:05:59;6.40;;;1.37;;
3189;SDS011;1606;51.946;10.558;2023-03-14T14:08:28;5.20;;;1.00;;
3189;SDS011;1606;51.946;10.558;2023-03-14T14:10:58;5.20;;;0.90;;
3189;SDS011;1606;51.946;10.558;2023-03-14T14:13:28;5.90;;;1.07;;
3189;SDS011;1606;51.946;10.558;2023-03-14T14:16:00;6.17;;;1.70;;
3189;SDS011;1606;51.946;10.558;2023-03-14T14:18:30;7.80;;;1.63;;
3189;SDS011;1606;51.946;10.558;2023-03-14T14:21:00;7.00;;;1.70;;
3189;SDS011;1606;51.946;10.558;2023-03-14T14:23:29;5.90;;;1.87;;
3189;SDS011;1606;51.946;10.558;2023-03-14T14:25:58;7.93;;;1.40;;
3189;SDS011;1606;51.946;10.558;2023-03-14T14:28:27;8.27;;;2.17;;
3189;SDS011;1606;51.946;10.558;2023-03-14T14:31:03;6.90;;;1.53;;
3189;SDS011;1606;51.946;10.558;2023-03-14T14:33:40;6.73;;;1.60;;
3189;SDS011;1606;51.946;10.558;2023-03-14T14:36:14;9.43;;;2.00;;
3189;SDS011;1606;51.946;10.558;2023-03-14T14:38:56;7.10;;;1.77;;
3189;SDS011;1606;51.946;10.558;2023-03-14T14:41:26;8.53;;;2.33;;
3189;SDS011;1606;51.946;10.558;2023-03-14T14:43:59;12.60;;;3.00;;
3189;SDS011;1606;51.946;10.558;2023-03-14T14:46:29;8.97;;;2.07;;
3189;SDS011;1606;51.946;10.558;2023-03-14T14:49:01;9.90;;;2.10;;
3189;SDS011;1606;51.946;10.558;2023-03-14T14:51:32;12.70;;;2.33;;
3189;SDS011;1606;51.946;10.558;2023-03-14T14:54:02;17.40;;;2.83;;
3189;SDS011;1606;51.946;10.558;2023-03-14T14:56:36;15.77;;;2.70;;
3189;SDS011;1606;51.946;10.558;2023-03-14T14:59:05;10.20;;;1.80;;
3189;SDS011;1606;51.946;10.558;2023-03-14T15:01:45;11.13;;;2.20;;
3189;SDS011;1606;51.946;10.558;2023-03-14T15:04:14;10.70;;;1.67;;
3189;SDS011;1606;51.946;10.558;2023-03-14T15:06:43;10.13;;;2.07;;
3189;SDS011;1606;51.946;10.558;2023-03-14T15:09:12;11.97;;;3.63;;
3189;SDS011;1606;51.946;10.558;2023-03-14T15:11:40;13.40;;;2.40;;
3189;SDS011;1606;51.946;10.558;2023-03-14T15:14:08;11.73;;;2.67;;
3189;SDS011;1606;51.946;10.558;2023-03-14T15:16:35;9.80;;;2.80;;
3189;SDS011;1606;51.946;10.558;2023-03-14T15:19:09;9.73;;;2.47;;
3189;SDS011;1606;51.946;10.558;2023-03-14T15:21:50;10.80;;;2.20;;
3189;SDS011;1606;51.946;10.558;2023-03-14T15:24:18;12.53;;;2.47;;
3189;SDS011;1606;51.946;10.558;2023-03-14T15:26:45;9.13;;;2.67;;
3189;SDS011;1606;51.946;10.558;2023-03-14T15:29:13;8.53;;;2.50;;
3189;SDS011;1606;51.946;10.558;2023-03-14T15:31:41;9.50;;;2.20;;
3189;SDS011;1606;51.946;10.558;2023-03-14T15:34:11;15.37;;;2.90;;
3189;SDS011;1606;51.946;10.558;2023-03-14T15:36:39;17.03;;;2.60;;